sensor_id;sensor_type;location;lat;lon;timestamp;temperature;humidity
5429;DHT22;2737;52.386;9.980;2023-01-20T00:00:21;-0.10;99.90
5429;DHT22;2737;52.386;9.980;2023-01-20T00:02:49;-0.10;99.90
5429;DHT22;2737;52.386;9.980;2023-01-20T00:05:16;-0.10;99.90
5429;DHT22;2737;52.386;9.980;2023-01-20T00:07:43;-0.10;99.90
5429;DHT22;2737;52.386;9.980;2023-01-20T00:10:10;-0.20;99.90
5429;DHT22;2737;52.386;9.980;2023-01-20T00:12:37;-0.20;99.90
5429;DHT22;2737;52.386;9.980;2023-01-20T00:15:06;-0.20;99.90
5429;DHT22;2737;52.386;9.980;2023-01-20T00:17:34;-0.20;99.90
5429;DHT22;2737;52.386;9.980;2023-01-20T00:20:03;-0.20;99.90
5429;DHT22;2737;52.386;9.980;2023-01-20T00:22:30;-0.20;99.90
5429;DHT22;2737;52.386;9.980;2023-01-20T00:24:58;-0.20;99.90
5429;DHT22;2737;52.386;9.980;2023-01-20T00:27:25;-0.20;99.90
5429;DHT22;2737;52.386;9.980;2023-01-20T00:29:52;-0.20;99.90
5429;DHT22;2737;52.386;9.980;2023-01-20T00:32:19;-0.30;99.90
5429;DHT22;2737;52.386;9.980;2023-01-20T00:34:46;-0.30;99.90
5429;DHT22;2737;52.386;9.980;2023-01-20T00:37:15;-0.30;99.90
5429;DHT22;2737;52.386;9.980;2023-01-20T00:39:42;-0.30;99.90
5429;DHT22;2737;52.386;9.980;2023-01-20T00:42:09;-0.30;99.90
5429;DHT22;2737;52.386;9.980;2023-01-20T00:44:36;-0.40;99.90
5429;DHT22;2737;52.386;9.980;2023-01-20T00:47:03;-0.40;99.90
5429;DHT22;2737;52.386;9.980;2023-01-20T00:49:30;-0.40;99.90
5429;DHT22;2737;52.386;9.980;2023-01-20T00:51:57;-0.40;99.90
5429;DHT22;2737;52.386;9.980;2023-01-20T00:54:25;-0.40;99.90
5429;DHT22;2737;52.386;9.980;2023-01-20T00:56:52;-0.40;99.90
5429;DHT22;2737;52.386;9.980;2023-01-20T00:59:19;-0.40;99.90
5429;DHT22;2737;52.386;9.980;2023-01-20T01:01:46;-0.40;99.90
5429;DHT22;2737;52.386;9.980;2023-01-20T01:04:13;-0.40;99.90
5429;DHT22;2737;52.386;9.980;2023-01-20T01:06:41;-0.40;99.90
5429;DHT22;2737;52.386;9.980;2023-01-20T01:09:08;-0.40;99.90
5429;DHT22;2737;52.386;9.980;2023-01-20T01:11:36;-0.40;99.90
5429;DHT22;2737;52.386;9.980;2023-01-20T01:14:03;-0.40;99.90
5429;DHT22;2737;52.386;9.980;2023-01-20T01:16:30;-0.40;99.90
5429;DHT22;2737;52.386;9.980;2023-01-20T01:18:57;-0.40;99.90
5429;DHT22;2737;52.386;9.980;2023-01-20T01:21:24;-0.50;99.90
5429;DHT22;2737;52.386;9.980;2023-01-20T01:23:52;-0.50;99.90
5429;DHT22;2737;52.386;9.980;2023-01-20T01:26:19;-0.50;99.90
5429;DHT22;2737;52.386;9.980;2023-01-20T01:28:48;-0.50;99.90
5429;DHT22;2737;52.386;9.980;2023-01-20T01:31:16;-0.50;99.90
5429;DHT22;2737;52.386;9.980;2023-01-20T01:33:46;-0.50;99.90
5429;DHT22;2737;52.386;9.980;2023-01-20T01:36:15;-0.50;99.90
5429;DHT22;2737;52.386;9.980;2023-01-20T01:38:43;-0.50;99.90
5429;DHT22;2737;52.386;9.980;2023-01-20T01:41:12;-0.50;99.90
5429;DHT22;2737;52.386;9.980;2023-01-20T01:44:00;-0.50;99.90
5429;DHT22;2737;52.386;9.980;2023-01-20T01:46:28;-0.50;99.90
5429;DHT22;2737;52.386;9.980;2023-01-20T01:48:56;-0.50;99.90
5429;DHT22;2737;52.386;9.980;2023-01-20T01:51:27;-0.50;99.90
5429;DHT22;2737;52.386;9.980;2023-01-20T01:53:57;-0.50;99.90
5429;DHT22;2737;52.386;9.980;2023-01-20T01:56:26;-0.50;99.90
5429;DHT22;2737;52.386;9.980;2023-01-20T01:58:58;-0.50;99.90
5429;DHT22;2737;52.386;9.980;2023-01-20T02:01:27;-0.50;99.90
5429;DHT22;2737;52.386;9.980;2023-01-20T02:03:57;-0.50;99.90
5429;DHT22;2737;52.386;9.980;2023-01-20T02:06:30;-0.50;99.90
5429;DHT22;2737;52.386;9.980;2023-01-20T02:08:59;-0.50;99.90
5429;DHT22;2737;52.386;9.980;2023-01-20T02:11:27;-0.50;99.90
5429;DHT22;2737;52.386;9.980;2023-01-20T02:13:55;-0.50;99.90
5429;DHT22;2737;52.386;9.980;2023-01-20T02:16:30;-0.50;99.90
5429;DHT22;2737;52.386;9.980;2023-01-20T02:19:19;-0.50;99.90
5429;DHT22;2737;52.386;9.980;2023-01-20T02:22:18;-0.50;99.90
5429;DHT22;2737;52.386;9.980;2023-01-20T02:31:13;-0.50;99.90
5429;DHT22;2737;52.386;9.980;2023-01-20T02:33:53;-0.50;99.90
5429;DHT22;2737;52.386;9.980;2023-01-20T02:36:26;-0.50;99.90
5429;DHT22;2737;52.386;9.980;2023-01-20T02:38:59;-0.50;99.90
5429;DHT22;2737;52.386;9.980;2023-01-20T02:41:34;-0.50;99.90
5429;DHT22;2737;52.386;9.980;2023-01-20T02:44:09;-0.50;99.90
5429;DHT22;2737;52.386;9.980;2023-01-20T02:46:41;-0.50;99.90
5429;DHT22;2737;52.386;9.980;2023-01-20T02:49:16;-0.50;99.90
5429;DHT22;2737;52.386;9.980;2023-01-20T02:51:49;-0.50;99.90
5429;DHT22;2737;52.386;9.980;2023-01-20T02:54:17;-0.50;99.90
5429;DHT22;2737;52.386;9.980;2023-01-20T02:56:47;-0.60;99.90
5429;DHT22;2737;52.386;9.980;2023-01-20T02:59:17;-0.60;99.90
5429;DHT22;2737;52.386;9.980;2023-01-20T03:01:51;-0.60;99.90
5429;DHT22;2737;52.386;9.980;2023-01-20T03:04:23;-0.60;99.90
5429;DHT22;2737;52.386;9.980;2023-01-20T03:06:53;-0.60;99.90
5429;DHT22;2737;52.386;9.980;2023-01-20T03:09:26;-0.70;99.90
5429;DHT22;2737;52.386;9.980;2023-01-20T03:11:57;-0.70;99.90
5429;DHT22;2737;52.386;9.980;2023-01-20T03:14:27;-0.70;99.90
5429;DHT22;2737;52.386;9.980;2023-01-20T03:16:54;-0.70;99.90
5429;DHT22;2737;52.386;9.980;2023-01-20T03:19:22;-0.80;99.90
5429;DHT22;2737;52.386;9.980;2023-01-20T03:21:49;-0.80;99.90
5429;DHT22;2737;52.386;9.980;2023-01-20T03:24:17;-0.80;99.90
5429;DHT22;2737;52.386;9.980;2023-01-20T03:26:44;-0.80;99.90
5429;DHT22;2737;52.386;9.980;2023-01-20T03:29:11;-0.80;99.90
5429;DHT22;2737;52.386;9.980;2023-01-20T03:31:42;-0.80;99.90
5429;DHT22;2737;52.386;9.980;2023-01-20T03:34:12;-0.80;99.90
5429;DHT22;2737;52.386;9.980;2023-01-20T03:36:43;-0.80;99.90
5429;DHT22;2737;52.386;9.980;2023-01-20T03:39:11;-0.90;99.90
5429;DHT22;2737;52.386;9.980;2023-01-20T03:41:47;-0.80;99.90
5429;DHT22;2737;52.386;9.980;2023-01-20T03:44:22;-0.90;99.90
5429;DHT22;2737;52.386;9.980;2023-01-20T03:46:58;-0.90;99.90
5429;DHT22;2737;52.386;9.980;2023-01-20T03:49:36;-0.90;99.90
5429;DHT22;2737;52.386;9.980;2023-01-20T03:52:17;-0.90;99.90
5429;DHT22;2737;52.386;9.980;2023-01-20T03:54:51;-0.90;99.90
5429;DHT22;2737;52.386;9.980;2023-01-20T03:57:23;-0.90;99.90
5429;DHT22;2737;52.386;9.980;2023-01-20T03:59:52;-0.90;99.90
5429;DHT22;2737;52.386;9.980;2023-01-20T04:02:20;-1.00;99.90
5429;DHT22;2737;52.386;9.980;2023-01-20T04:04:49;-0.90;99.90
5429;DHT22;2737;52.386;9.980;2023-01-20T04:07:20;-1.00;99.90
5429;DHT22;2737;52.386;9.980;2023-01-20T04:09:50;-1.00;99.90
5429;DHT22;2737;52.386;9.980;2023-01-20T04:12:18;-1.00;99.90
5429;DHT22;2737;52.386;9.980;2023-01-20T04:14:45;-1.00;99.90
5429;DHT22;2737;52.386;9.980;2023-01-20T04:17:12;-1.00;99.90
5429;DHT22;2737;52.386;9.980;2023-01-20T04:19:39;-1.00;99.90
5429;DHT22;2737;52.386;9.980;2023-01-20T04:22:11;-1.10;99.90
5429;DHT22;2737;52.386;9.980;2023-01-20T04:24:44;-1.10;99.90
5429;DHT22;2737;52.386;9.980;2023-01-20T04:27:14;-1.10;99.90
5429;DHT22;2737;52.386;9.980;2023-01-20T04:29:41;-1.20;99.90
5429;DHT22;2737;52.386;9.980;2023-01-20T04:32:10;-1.10;99.90
5429;DHT22;2737;52.386;9.980;2023-01-20T04:34:37;-1.10;99.90
5429;DHT22;2737;52.386;9.980;2023-01-20T04:37:04;-1.10;99.90
5429;DHT22;2737;52.386;9.980;2023-01-20T04:39:31;-1.10;99.90
5429;DHT22;2737;52.386;9.980;2023-01-20T04:42:00;-1.10;99.90
5429;DHT22;2737;52.386;9.980;2023-01-20T04:44:27;-1.10;99.90
5429;DHT22;2737;52.386;9.980;2023-01-20T04:46:56;-1.00;99.90
5429;DHT22;2737;52.386;9.980;2023-01-20T04:49:23;-1.00;99.90
5429;DHT22;2737;52.386;9.980;2023-01-20T04:51:50;-1.00;99.90
5429;DHT22;2737;52.386;9.980;2023-01-20T04:54:17;-1.10;99.90
5429;DHT22;2737;52.386;9.980;2023-01-20T04:56:45;-1.00;99.90
5429;DHT22;2737;52.386;9.980;2023-01-20T04:59:14;-1.10;99.90
5429;DHT22;2737;52.386;9.980;2023-01-20T05:01:41;-1.10;99.90
5429;DHT22;2737;52.386;9.980;2023-01-20T05:04:08;-1.10;99.90
5429;DHT22;2737;52.386;9.980;2023-01-20T05:06:35;-1.20;99.90
5429;DHT22;2737;52.386;9.980;2023-01-20T05:09:03;-1.20;99.90
5429;DHT22;2737;52.386;9.980;2023-01-20T05:11:30;-1.20;99.90
5429;DHT22;2737;52.386;9.980;2023-01-20T05:13:57;-1.20;99.90
5429;DHT22;2737;52.386;9.980;2023-01-20T05:16:25;-1.20;99.90
5429;DHT22;2737;52.386;9.980;2023-01-20T05:18:56;-1.30;99.90
5429;DHT22;2737;52.386;9.980;2023-01-20T05:21:26;-1.30;99.90
5429;DHT22;2737;52.386;9.980;2023-01-20T05:23:53;-1.30;99.90
5429;DHT22;2737;52.386;9.980;2023-01-20T05:26:21;-1.30;99.90
5429;DHT22;2737;52.386;9.980;2023-01-20T05:28:49;-1.30;99.90
5429;DHT22;2737;52.386;9.980;2023-01-20T05:31:16;-1.40;99.90
5429;DHT22;2737;52.386;9.980;2023-01-20T05:33:44;-1.40;99.90
5429;DHT22;2737;52.386;9.980;2023-01-20T05:36:11;-1.40;99.90
5429;DHT22;2737;52.386;9.980;2023-01-20T05:38:38;-1.50;99.90
5429;DHT22;2737;52.386;9.980;2023-01-20T05:41:07;-1.50;99.90
5429;DHT22;2737;52.386;9.980;2023-01-20T05:43:34;-1.60;99.90
5429;DHT22;2737;52.386;9.980;2023-01-20T05:46:01;-1.60;99.90
5429;DHT22;2737;52.386;9.980;2023-01-20T05:48:29;-1.70;99.90
5429;DHT22;2737;52.386;9.980;2023-01-20T05:50:58;-1.70;99.90
5429;DHT22;2737;52.386;9.980;2023-01-20T05:53:25;-1.70;99.90
5429;DHT22;2737;52.386;9.980;2023-01-20T05:55:58;-1.70;99.90
5429;DHT22;2737;52.386;9.980;2023-01-20T05:58:26;-1.80;99.90
5429;DHT22;2737;52.386;9.980;2023-01-20T06:00:53;-1.90;99.90
5429;DHT22;2737;52.386;9.980;2023-01-20T06:03:20;-1.90;99.90
5429;DHT22;2737;52.386;9.980;2023-01-20T06:05:47;-1.90;99.90
5429;DHT22;2737;52.386;9.980;2023-01-20T06:08:16;-1.90;99.90
5429;DHT22;2737;52.386;9.980;2023-01-20T06:10:43;-1.90;99.90
5429;DHT22;2737;52.386;9.980;2023-01-20T06:13:10;-2.00;99.90
5429;DHT22;2737;52.386;9.980;2023-01-20T06:15:38;-2.00;99.90
5429;DHT22;2737;52.386;9.980;2023-01-20T06:18:05;-2.10;99.90
5429;DHT22;2737;52.386;9.980;2023-01-20T06:20:32;-2.10;99.90
5429;DHT22;2737;52.386;9.980;2023-01-20T06:22:59;-2.10;99.90
5429;DHT22;2737;52.386;9.980;2023-01-20T06:25:30;-2.00;99.90
5429;DHT22;2737;52.386;9.980;2023-01-20T06:27:57;-2.10;99.90
5429;DHT22;2737;52.386;9.980;2023-01-20T06:30:25;-2.10;99.90
5429;DHT22;2737;52.386;9.980;2023-01-20T06:32:52;-2.20;99.90
5429;DHT22;2737;52.386;9.980;2023-01-20T06:35:19;-2.20;99.90
5429;DHT22;2737;52.386;9.980;2023-01-20T06:37:46;-2.20;99.90
5429;DHT22;2737;52.386;9.980;2023-01-20T06:40:14;-2.20;99.90
5429;DHT22;2737;52.386;9.980;2023-01-20T06:42:43;-2.20;99.90
5429;DHT22;2737;52.386;9.980;2023-01-20T06:45:10;-2.20;99.90
5429;DHT22;2737;52.386;9.980;2023-01-20T06:47:37;-2.20;99.90
5429;DHT22;2737;52.386;9.980;2023-01-20T06:50:07;-2.20;99.90
5429;DHT22;2737;52.386;9.980;2023-01-20T06:52:34;-2.20;99.90
5429;DHT22;2737;52.386;9.980;2023-01-20T06:55:02;-2.20;99.90
5429;DHT22;2737;52.386;9.980;2023-01-20T06:57:29;-2.20;99.90
5429;DHT22;2737;52.386;9.980;2023-01-20T06:59:57;-2.20;99.90
5429;DHT22;2737;52.386;9.980;2023-01-20T07:02:24;-2.20;99.90
5429;DHT22;2737;52.386;9.980;2023-01-20T07:04:51;-2.20;99.90
5429;DHT22;2737;52.386;9.980;2023-01-20T07:07:18;-2.20;99.90
5429;DHT22;2737;52.386;9.980;2023-01-20T07:09:46;-2.20;99.90
5429;DHT22;2737;52.386;9.980;2023-01-20T07:12:13;-2.10;99.90
5429;DHT22;2737;52.386;9.980;2023-01-20T07:14:40;-2.10;99.90
5429;DHT22;2737;52.386;9.980;2023-01-20T07:17:10;-2.10;99.90
5429;DHT22;2737;52.386;9.980;2023-01-20T07:19:37;-2.20;99.90
5429;DHT22;2737;52.386;9.980;2023-01-20T07:22:04;-2.10;99.90
5429;DHT22;2737;52.386;9.980;2023-01-20T07:24:31;-2.10;99.90
5429;DHT22;2737;52.386;9.980;2023-01-20T07:26:58;-2.10;99.90
5429;DHT22;2737;52.386;9.980;2023-01-20T07:29:25;-2.10;99.90
5429;DHT22;2737;52.386;9.980;2023-01-20T07:31:52;-2.00;99.90
5429;DHT22;2737;52.386;9.980;2023-01-20T07:34:21;-1.90;99.90
5429;DHT22;2737;52.386;9.980;2023-01-20T07:36:50;-1.90;99.90
5429;DHT22;2737;52.386;9.980;2023-01-20T07:39:18;-1.90;99.90
5429;DHT22;2737;52.386;9.980;2023-01-20T07:41:45;-1.80;99.90
5429;DHT22;2737;52.386;9.980;2023-01-20T07:44:14;-1.80;99.90
5429;DHT22;2737;52.386;9.980;2023-01-20T07:46:42;-1.80;99.90
5429;DHT22;2737;52.386;9.980;2023-01-20T07:49:10;-1.70;99.90
5429;DHT22;2737;52.386;9.980;2023-01-20T07:51:38;-1.70;99.90
5429;DHT22;2737;52.386;9.980;2023-01-20T07:54:05;-1.70;99.90
5429;DHT22;2737;52.386;9.980;2023-01-20T07:56:33;-1.60;99.90
5429;DHT22;2737;52.386;9.980;2023-01-20T07:59:01;-1.60;99.90
5429;DHT22;2737;52.386;9.980;2023-01-20T08:01:29;-1.60;99.90
5429;DHT22;2737;52.386;9.980;2023-01-20T08:03:58;-1.50;99.90
5429;DHT22;2737;52.386;9.980;2023-01-20T08:06:26;-1.50;99.90
5429;DHT22;2737;52.386;9.980;2023-01-20T08:09:03;-1.40;99.90
5429;DHT22;2737;52.386;9.980;2023-01-20T08:11:30;-1.30;99.90
5429;DHT22;2737;52.386;9.980;2023-01-20T08:13:57;-1.30;99.90
5429;DHT22;2737;52.386;9.980;2023-01-20T08:16:24;-1.20;99.90
5429;DHT22;2737;52.386;9.980;2023-01-20T08:18:52;-1.20;99.90
5429;DHT22;2737;52.386;9.980;2023-01-20T08:21:21;-1.10;99.90
5429;DHT22;2737;52.386;9.980;2023-01-20T08:23:49;-1.10;99.90
5429;DHT22;2737;52.386;9.980;2023-01-20T08:26:17;-1.10;99.90
5429;DHT22;2737;52.386;9.980;2023-01-20T08:28:45;-1.00;99.90
5429;DHT22;2737;52.386;9.980;2023-01-20T08:31:13;-1.00;99.90
5429;DHT22;2737;52.386;9.980;2023-01-20T08:33:41;-1.00;99.90
5429;DHT22;2737;52.386;9.980;2023-01-20T08:36:11;-1.00;99.90
5429;DHT22;2737;52.386;9.980;2023-01-20T08:38:38;-1.00;99.90
5429;DHT22;2737;52.386;9.980;2023-01-20T08:41:06;-1.00;99.90
5429;DHT22;2737;52.386;9.980;2023-01-20T08:43:35;-0.90;99.90
5429;DHT22;2737;52.386;9.980;2023-01-20T08:46:05;-0.80;99.90
5429;DHT22;2737;52.386;9.980;2023-01-20T08:48:32;-0.80;99.90
5429;DHT22;2737;52.386;9.980;2023-01-20T08:51:02;-0.80;99.90
5429;DHT22;2737;52.386;9.980;2023-01-20T08:53:37;-0.70;99.90
5429;DHT22;2737;52.386;9.980;2023-01-20T08:56:04;-0.70;99.90
5429;DHT22;2737;52.386;9.980;2023-01-20T08:58:32;-0.60;99.90
5429;DHT22;2737;52.386;9.980;2023-01-20T09:01:00;-0.60;99.90
5429;DHT22;2737;52.386;9.980;2023-01-20T09:03:28;-0.60;99.90
5429;DHT22;2737;52.386;9.980;2023-01-20T09:05:55;-0.60;99.90
5429;DHT22;2737;52.386;9.980;2023-01-20T09:08:23;-0.50;99.90
5429;DHT22;2737;52.386;9.980;2023-01-20T09:10:51;-0.50;99.90
5429;DHT22;2737;52.386;9.980;2023-01-20T09:13:19;-0.50;99.90
5429;DHT22;2737;52.386;9.980;2023-01-20T09:15:50;-0.50;99.90
5429;DHT22;2737;52.386;9.980;2023-01-20T09:18:19;-0.50;99.90
5429;DHT22;2737;52.386;9.980;2023-01-20T09:20:46;-0.40;99.90
5429;DHT22;2737;52.386;9.980;2023-01-20T09:23:13;-0.40;99.90
5429;DHT22;2737;52.386;9.980;2023-01-20T09:25:40;-0.30;99.90
5429;DHT22;2737;52.386;9.980;2023-01-20T09:28:07;-0.30;99.90
5429;DHT22;2737;52.386;9.980;2023-01-20T09:30:34;-0.20;99.90
5429;DHT22;2737;52.386;9.980;2023-01-20T09:33:02;-0.20;99.90
5429;DHT22;2737;52.386;9.980;2023-01-20T09:35:30;-0.10;99.90
5429;DHT22;2737;52.386;9.980;2023-01-20T09:37:57;-0.10;99.90
5429;DHT22;2737;52.386;9.980;2023-01-20T09:40:50;-0.10;99.90
5429;DHT22;2737;52.386;9.980;2023-01-20T09:43:38;-0.10;99.90
5429;DHT22;2737;52.386;9.980;2023-01-20T09:46:28;-0.10;99.90
5429;DHT22;2737;52.386;9.980;2023-01-20T09:49:03;0.00;99.90
5429;DHT22;2737;52.386;9.980;2023-01-20T09:51:59;0.00;99.90
5429;DHT22;2737;52.386;9.980;2023-01-20T09:54:49;0.00;99.90
5429;DHT22;2737;52.386;9.980;2023-01-20T09:57:18;0.10;99.90
5429;DHT22;2737;52.386;9.980;2023-01-20T09:59:53;0.10;99.90
5429;DHT22;2737;52.386;9.980;2023-01-20T10:02:24;0.10;99.90
5429;DHT22;2737;52.386;9.980;2023-01-20T10:04:57;0.10;99.90
5429;DHT22;2737;52.386;9.980;2023-01-20T10:07:32;0.10;99.90
5429;DHT22;2737;52.386;9.980;2023-01-20T10:10:08;0.10;99.90
5429;DHT22;2737;52.386;9.980;2023-01-20T10:12:41;0.20;99.90
5429;DHT22;2737;52.386;9.980;2023-01-20T10:15:13;0.20;99.90
5429;DHT22;2737;52.386;9.980;2023-01-20T10:17:47;0.20;99.90
5429;DHT22;2737;52.386;9.980;2023-01-20T10:20:21;0.10;99.90
5429;DHT22;2737;52.386;9.980;2023-01-20T10:22:59;0.20;99.90
5429;DHT22;2737;52.386;9.980;2023-01-20T10:25:30;0.20;99.90
5429;DHT22;2737;52.386;9.980;2023-01-20T10:28:04;0.20;99.90
5429;DHT22;2737;52.386;9.980;2023-01-20T10:30:34;0.30;99.90
5429;DHT22;2737;52.386;9.980;2023-01-20T10:33:07;0.30;99.90
5429;DHT22;2737;52.386;9.980;2023-01-20T10:35:36;0.30;99.90
5429;DHT22;2737;52.386;9.980;2023-01-20T10:38:12;0.30;99.90
5429;DHT22;2737;52.386;9.980;2023-01-20T10:40:47;0.40;99.90
5429;DHT22;2737;52.386;9.980;2023-01-20T10:43:17;0.40;99.90
5429;DHT22;2737;52.386;9.980;2023-01-20T10:45:54;0.40;99.90
5429;DHT22;2737;52.386;9.980;2023-01-20T10:48:43;0.40;99.90
5429;DHT22;2737;52.386;9.980;2023-01-20T10:51:21;0.40;99.90
5429;DHT22;2737;52.386;9.980;2023-01-20T10:53:58;0.50;99.90
5429;DHT22;2737;52.386;9.980;2023-01-20T10:56:37;0.50;99.90
5429;DHT22;2737;52.386;9.980;2023-01-20T10:59:10;0.50;99.90
5429;DHT22;2737;52.386;9.980;2023-01-20T11:01:38;0.50;99.90
5429;DHT22;2737;52.386;9.980;2023-01-20T11:04:16;0.40;99.90
5429;DHT22;2737;52.386;9.980;2023-01-20T11:06:44;0.40;99.90
5429;DHT22;2737;52.386;9.980;2023-01-20T11:09:21;0.40;99.90
5429;DHT22;2737;52.386;9.980;2023-01-20T11:11:52;0.40;99.90
5429;DHT22;2737;52.386;9.980;2023-01-20T11:14:19;0.40;99.90
5429;DHT22;2737;52.386;9.980;2023-01-20T11:16:50;0.40;99.90
5429;DHT22;2737;52.386;9.980;2023-01-20T11:19:20;0.40;99.90
5429;DHT22;2737;52.386;9.980;2023-01-20T11:21:47;0.50;99.90
5429;DHT22;2737;52.386;9.980;2023-01-20T11:24:33;0.60;99.90
5429;DHT22;2737;52.386;9.980;2023-01-20T11:27:05;0.60;99.90
5429;DHT22;2737;52.386;9.980;2023-01-20T11:29:40;0.70;99.90
5429;DHT22;2737;52.386;9.980;2023-01-20T11:32:23;0.70;99.90
5429;DHT22;2737;52.386;9.980;2023-01-20T11:34:51;0.80;99.90
5429;DHT22;2737;52.386;9.980;2023-01-20T11:37:21;0.80;99.90
5429;DHT22;2737;52.386;9.980;2023-01-20T11:40:00;0.90;99.90
5429;DHT22;2737;52.386;9.980;2023-01-20T11:42:28;1.00;99.90
5429;DHT22;2737;52.386;9.980;2023-01-20T11:44:57;1.00;99.90
5429;DHT22;2737;52.386;9.980;2023-01-20T11:47:28;1.00;99.90
5429;DHT22;2737;52.386;9.980;2023-01-20T11:50:23;1.10;99.90
5429;DHT22;2737;52.386;9.980;2023-01-20T11:52:51;1.20;99.90
5429;DHT22;2737;52.386;9.980;2023-01-20T11:55:21;1.20;99.90
5429;DHT22;2737;52.386;9.980;2023-01-20T11:57:52;1.30;99.90
5429;DHT22;2737;52.386;9.980;2023-01-20T12:00:36;1.40;99.90
5429;DHT22;2737;52.386;9.980;2023-01-20T12:03:34;1.50;99.90
5429;DHT22;2737;52.386;9.980;2023-01-20T12:06:09;1.50;99.90
5429;DHT22;2737;52.386;9.980;2023-01-20T12:08:44;1.60;99.90
5429;DHT22;2737;52.386;9.980;2023-01-20T12:11:17;1.60;99.90
5429;DHT22;2737;52.386;9.980;2023-01-20T12:14:00;1.60;99.90
5429;DHT22;2737;52.386;9.980;2023-01-20T12:19:39;1.60;99.90
5429;DHT22;2737;52.386;9.980;2023-01-20T12:22:12;1.60;99.90
5429;DHT22;2737;52.386;9.980;2023-01-20T12:24:50;1.60;99.90
5429;DHT22;2737;52.386;9.980;2023-01-20T12:27:41;1.60;99.90
5429;DHT22;2737;52.386;9.980;2023-01-20T12:33:16;1.60;99.90
5429;DHT22;2737;52.386;9.980;2023-01-20T12:38:40;1.50;99.90
5429;DHT22;2737;52.386;9.980;2023-01-20T12:41:16;1.40;99.90
5429;DHT22;2737;52.386;9.980;2023-01-20T12:43:54;1.40;99.90
5429;DHT22;2737;52.386;9.980;2023-01-20T12:46:35;1.40;99.90
5429;DHT22;2737;52.386;9.980;2023-01-20T12:49:18;1.40;99.90
5429;DHT22;2737;52.386;9.980;2023-01-20T12:52:00;1.40;99.90
5429;DHT22;2737;52.386;9.980;2023-01-20T12:57:43;1.40;99.90
5429;DHT22;2737;52.386;9.980;2023-01-20T13:00:28;1.40;99.90
5429;DHT22;2737;52.386;9.980;2023-01-20T13:03:23;1.50;99.90
5429;DHT22;2737;52.386;9.980;2023-01-20T13:08:52;1.50;99.90
5429;DHT22;2737;52.386;9.980;2023-01-20T13:11:36;1.50;99.90
5429;DHT22;2737;52.386;9.980;2023-01-20T13:14:09;1.50;99.90
5429;DHT22;2737;52.386;9.980;2023-01-20T13:16:43;1.50;99.90
5429;DHT22;2737;52.386;9.980;2023-01-20T13:19:14;1.60;99.90
5429;DHT22;2737;52.386;9.980;2023-01-20T13:21:42;1.60;99.90
5429;DHT22;2737;52.386;9.980;2023-01-20T13:24:14;1.70;99.90
5429;DHT22;2737;52.386;9.980;2023-01-20T13:26:44;1.70;99.90
5429;DHT22;2737;52.386;9.980;2023-01-20T13:29:25;1.60;99.90
5429;DHT22;2737;52.386;9.980;2023-01-20T13:32:25;1.60;99.90
5429;DHT22;2737;52.386;9.980;2023-01-20T13:34:53;1.60;99.90
5429;DHT22;2737;52.386;9.980;2023-01-20T13:37:26;1.70;99.90
5429;DHT22;2737;52.386;9.980;2023-01-20T13:39:55;1.70;99.90
5429;DHT22;2737;52.386;9.980;2023-01-20T13:42:46;1.70;99.90
5429;DHT22;2737;52.386;9.980;2023-01-20T13:45:18;1.70;99.90
5429;DHT22;2737;52.386;9.980;2023-01-20T13:48:23;1.70;99.90
5429;DHT22;2737;52.386;9.980;2023-01-20T13:50:50;1.70;99.90
5429;DHT22;2737;52.386;9.980;2023-01-20T13:53:26;1.70;99.90
5429;DHT22;2737;52.386;9.980;2023-01-20T13:55:59;1.70;99.90
5429;DHT22;2737;52.386;9.980;2023-01-20T13:58:28;1.70;99.90
5429;DHT22;2737;52.386;9.980;2023-01-20T14:00:57;1.70;99.90
5429;DHT22;2737;52.386;9.980;2023-01-20T14:03:28;1.70;99.90
5429;DHT22;2737;52.386;9.980;2023-01-20T14:05:57;1.70;99.90
5429;DHT22;2737;52.386;9.980;2023-01-20T14:08:29;1.70;99.90
5429;DHT22;2737;52.386;9.980;2023-01-20T14:11:06;1.70;99.90
5429;DHT22;2737;52.386;9.980;2023-01-20T14:13:33;1.60;99.90
5429;DHT22;2737;52.386;9.980;2023-01-20T14:16:00;1.60;99.90
5429;DHT22;2737;52.386;9.980;2023-01-20T14:18:29;1.60;99.90
5429;DHT22;2737;52.386;9.980;2023-01-20T14:21:03;1.60;99.90
5429;DHT22;2737;52.386;9.980;2023-01-20T14:23:32;1.60;99.90
5429;DHT22;2737;52.386;9.980;2023-01-20T14:26:03;1.50;99.90
5429;DHT22;2737;52.386;9.980;2023-01-20T14:28:31;1.60;99.90
5429;DHT22;2737;52.386;9.980;2023-01-20T14:31:14;1.60;99.90
5429;DHT22;2737;52.386;9.980;2023-01-20T14:33:52;1.60;99.90
5429;DHT22;2737;52.386;9.980;2023-01-20T14:36:21;1.60;99.90
5429;DHT22;2737;52.386;9.980;2023-01-20T14:38:51;1.60;99.90
5429;DHT22;2737;52.386;9.980;2023-01-20T14:41:26;1.60;99.90
5429;DHT22;2737;52.386;9.980;2023-01-20T14:43:54;1.60;99.90
5429;DHT22;2737;52.386;9.980;2023-01-20T14:46:22;1.60;99.90
5429;DHT22;2737;52.386;9.980;2023-01-20T14:48:52;1.60;99.90
5429;DHT22;2737;52.386;9.980;2023-01-20T14:51:20;1.70;99.90
5429;DHT22;2737;52.386;9.980;2023-01-20T14:56:48;1.70;99.90
5429;DHT22;2737;52.386;9.980;2023-01-20T14:59:17;1.80;99.90
5429;DHT22;2737;52.386;9.980;2023-01-20T15:01:50;1.80;99.90
5429;DHT22;2737;52.386;9.980;2023-01-20T15:04:19;1.80;99.90
5429;DHT22;2737;52.386;9.980;2023-01-20T15:06:54;1.80;99.90
5429;DHT22;2737;52.386;9.980;2023-01-20T15:09:26;1.80;99.90
5429;DHT22;2737;52.386;9.980;2023-01-20T15:15:01;1.70;99.90
5429;DHT22;2737;52.386;9.980;2023-01-20T15:17:34;1.80;99.90
5429;DHT22;2737;52.386;9.980;2023-01-20T15:20:26;1.70;99.90
5429;DHT22;2737;52.386;9.980;2023-01-20T15:22:53;1.60;99.90
5429;DHT22;2737;52.386;9.980;2023-01-20T15:25:20;1.70;99.90
5429;DHT22;2737;52.386;9.980;2023-01-20T15:27:51;1.60;99.90
5429;DHT22;2737;52.386;9.980;2023-01-20T15:30:20;1.60;99.90
5429;DHT22;2737;52.386;9.980;2023-01-20T15:32:49;1.60;99.90
5429;DHT22;2737;52.386;9.980;2023-01-20T15:35:19;1.50;99.90
5429;DHT22;2737;52.386;9.980;2023-01-20T15:37:48;1.50;99.90
5429;DHT22;2737;52.386;9.980;2023-01-20T15:40:17;1.50;99.90
5429;DHT22;2737;52.386;9.980;2023-01-20T15:42:45;1.40;99.90
5429;DHT22;2737;52.386;9.980;2023-01-20T15:45:12;1.40;99.90
5429;DHT22;2737;52.386;9.980;2023-01-20T15:47:40;1.40;99.90
5429;DHT22;2737;52.386;9.980;2023-01-20T15:50:15;1.40;99.90
5429;DHT22;2737;52.386;9.980;2023-01-20T15:52:44;1.40;99.90
5429;DHT22;2737;52.386;9.980;2023-01-20T15:55:12;1.40;99.90
5429;DHT22;2737;52.386;9.980;2023-01-20T15:57:40;1.40;99.90
5429;DHT22;2737;52.386;9.980;2023-01-20T16:02:41;1.30;99.90
5429;DHT22;2737;52.386;9.980;2023-01-20T16:05:09;1.30;99.90
5429;DHT22;2737;52.386;9.980;2023-01-20T16:07:38;1.30;99.90
5429;DHT22;2737;52.386;9.980;2023-01-20T16:10:12;1.20;99.90
5429;DHT22;2737;52.386;9.980;2023-01-20T16:12:39;1.20;99.90
5429;DHT22;2737;52.386;9.980;2023-01-20T16:15:08;1.20;99.90
5429;DHT22;2737;52.386;9.980;2023-01-20T16:17:35;1.20;99.90
5429;DHT22;2737;52.386;9.980;2023-01-20T16:20:02;1.20;99.90
5429;DHT22;2737;52.386;9.980;2023-01-20T16:22:30;1.20;99.90
5429;DHT22;2737;52.386;9.980;2023-01-20T16:24:57;1.20;99.90
5429;DHT22;2737;52.386;9.980;2023-01-20T16:27:25;1.20;99.90
5429;DHT22;2737;52.386;9.980;2023-01-20T16:29:52;1.10;99.90
5429;DHT22;2737;52.386;9.980;2023-01-20T16:32:20;1.10;99.90
5429;DHT22;2737;52.386;9.980;2023-01-20T16:34:48;1.10;99.90
5429;DHT22;2737;52.386;9.980;2023-01-20T16:37:15;1.20;99.90
5429;DHT22;2737;52.386;9.980;2023-01-20T16:39:42;1.10;99.90
5429;DHT22;2737;52.386;9.980;2023-01-20T16:42:10;1.10;99.90
5429;DHT22;2737;52.386;9.980;2023-01-20T16:44:39;1.20;99.90
5429;DHT22;2737;52.386;9.980;2023-01-20T16:47:06;1.20;99.90
5429;DHT22;2737;52.386;9.980;2023-01-20T16:49:33;1.30;99.90
5429;DHT22;2737;52.386;9.980;2023-01-20T16:52:00;1.30;99.90
5429;DHT22;2737;52.386;9.980;2023-01-20T16:54:28;1.30;99.90
5429;DHT22;2737;52.386;9.980;2023-01-20T16:56:55;1.30;99.90
5429;DHT22;2737;52.386;9.980;2023-01-20T16:59:22;1.30;99.90